sensor_id;sensor_type;location;lat;lon;timestamp;P1;durP1;ratioP1;P2;durP2;ratioP2
26951;SDS011;14507;52.418;13.398;2022-08-07T00:00:21;6.97;;;2.85;;
26951;SDS011;14507;52.418;13.398;2022-08-07T00:02:47;7.10;;;2.72;;
26951;SDS011;14507;52.418;13.398;2022-08-07T00:05:12;6.43;;;2.70;;
26951;SDS011;14507;52.418;13.398;2022-08-07T00:07:38;5.60;;;2.80;;
26951;SDS011;14507;52.418;13.398;2022-08-07T00:10:04;5.60;;;2.53;;
26951;SDS011;14507;52.418;13.398;2022-08-07T00:12:30;8.68;;;3.05;;
26951;SDS011;14507;52.418;13.398;2022-08-07T00:14:56;7.72;;;3.30;;
26951;SDS011;14507;52.418;13.398;2022-08-07T00:17:22;7.00;;;2.88;;
26951;SDS011;14507;52.418;13.398;2022-08-07T00:19:48;6.03;;;2.55;;
26951;SDS011;14507;52.418;13.398;2022-08-07T00:22:14;8.05;;;2.70;;
26951;SDS011;14507;52.418;13.398;2022-08-07T00:24:40;5.70;;;3.05;;
26951;SDS011;14507;52.418;13.398;2022-08-07T00:27:06;10.70;;;2.78;;
26951;SDS011;14507;52.418;13.398;2022-08-07T00:29:31;5.57;;;2.75;;
26951;SDS011;14507;52.418;13.398;2022-08-07T00:31:57;7.72;;;3.17;;
26951;SDS011;14507;52.418;13.398;2022-08-07T00:34:24;6.60;;;2.78;;
26951;SDS011;14507;52.418;13.398;2022-08-07T00:36:51;6.18;;;2.60;;
26951;SDS011;14507;52.418;13.398;2022-08-07T00:39:16;5.53;;;2.75;;
26951;SDS011;14507;52.418;13.398;2022-08-07T00:41:52;5.72;;;3.03;;
26951;SDS011;14507;52.418;13.398;2022-08-07T00:44:23;6.13;;;2.83;;
26951;SDS011;14507;52.418;13.398;2022-08-07T00:46:48;7.18;;;3.03;;
26951;SDS011;14507;52.418;13.398;2022-08-07T00:49:14;5.63;;;2.90;;
26951;SDS011;14507;52.418;13.398;2022-08-07T00:51:40;6.38;;;3.20;;
26951;SDS011;14507;52.418;13.398;2022-08-07T00:54:06;8.43;;;3.25;;
26951;SDS011;14507;52.418;13.398;2022-08-07T00:56:32;11.02;;;3.30;;
26951;SDS011;14507;52.418;13.398;2022-08-07T00:58:59;6.72;;;2.97;;
26951;SDS011;14507;52.418;13.398;2022-08-07T01:01:25;9.48;;;3.35;;
26951;SDS011;14507;52.418;13.398;2022-08-07T01:03:50;7.72;;;3.00;;
26951;SDS011;14507;52.418;13.398;2022-08-07T01:06:17;6.13;;;3.17;;
26951;SDS011;14507;52.418;13.398;2022-08-07T01:08:43;5.97;;;2.90;;
26951;SDS011;14507;52.418;13.398;2022-08-07T01:11:11;5.95;;;3.00;;
26951;SDS011;14507;52.418;13.398;2022-08-07T01:13:37;6.63;;;3.25;;
26951;SDS011;14507;52.418;13.398;2022-08-07T01:16:04;8.23;;;3.50;;
26951;SDS011;14507;52.418;13.398;2022-08-07T01:18:31;7.93;;;3.78;;
26951;SDS011;14507;52.418;13.398;2022-08-07T01:21:03;7.93;;;3.35;;
26951;SDS011;14507;52.418;13.398;2022-08-07T01:23:31;7.63;;;3.50;;
26951;SDS011;14507;52.418;13.398;2022-08-07T01:25:58;6.97;;;3.13;;
26951;SDS011;14507;52.418;13.398;2022-08-07T01:28:24;8.23;;;3.28;;
26951;SDS011;14507;52.418;13.398;2022-08-07T01:30:49;5.90;;;3.08;;
26951;SDS011;14507;52.418;13.398;2022-08-07T01:33:17;13.80;;;3.92;;
26951;SDS011;14507;52.418;13.398;2022-08-07T01:35:44;8.73;;;3.42;;
26951;SDS011;14507;52.418;13.398;2022-08-07T01:38:10;11.43;;;4.00;;
26951;SDS011;14507;52.418;13.398;2022-08-07T01:40:36;7.75;;;3.83;;
26951;SDS011;14507;52.418;13.398;2022-08-07T01:43:03;9.77;;;3.75;;
26951;SDS011;14507;52.418;13.398;2022-08-07T01:45:29;7.50;;;3.70;;
26951;SDS011;14507;52.418;13.398;2022-08-07T01:47:57;9.25;;;4.07;;
26951;SDS011;14507;52.418;13.398;2022-08-07T01:50:23;12.90;;;4.30;;
26951;SDS011;14507;52.418;13.398;2022-08-07T01:52:50;7.50;;;3.97;;
26951;SDS011;14507;52.418;13.398;2022-08-07T01:55:21;10.80;;;3.63;;
26951;SDS011;14507;52.418;13.398;2022-08-07T01:57:54;7.28;;;3.60;;
26951;SDS011;14507;52.418;13.398;2022-08-07T02:00:22;9.07;;;4.10;;
26951;SDS011;14507;52.418;13.398;2022-08-07T02:02:54;9.52;;;4.40;;
26951;SDS011;14507;52.418;13.398;2022-08-07T02:05:33;6.45;;;3.55;;
26951;SDS011;14507;52.418;13.398;2022-08-07T02:08:07;10.38;;;4.10;;
26951;SDS011;14507;52.418;13.398;2022-08-07T02:10:35;10.18;;;4.07;;
26951;SDS011;14507;52.418;13.398;2022-08-07T02:15:29;8.40;;;3.95;;
26951;SDS011;14507;52.418;13.398;2022-08-07T02:17:56;8.25;;;4.15;;
26951;SDS011;14507;52.418;13.398;2022-08-07T02:20:23;7.65;;;4.00;;
26951;SDS011;14507;52.418;13.398;2022-08-07T02:22:54;9.77;;;4.38;;
26951;SDS011;14507;52.418;13.398;2022-08-07T02:25:23;9.95;;;3.90;;
26951;SDS011;14507;52.418;13.398;2022-08-07T02:27:50;8.57;;;4.00;;
26951;SDS011;14507;52.418;13.398;2022-08-07T02:30:17;8.13;;;4.07;;
26951;SDS011;14507;52.418;13.398;2022-08-07T02:32:42;8.80;;;4.05;;
26951;SDS011;14507;52.418;13.398;2022-08-07T02:35:09;8.80;;;4.20;;
26951;SDS011;14507;52.418;13.398;2022-08-07T02:37:36;11.35;;;4.13;;
26951;SDS011;14507;52.418;13.398;2022-08-07T02:40:05;9.93;;;3.85;;
26951;SDS011;14507;52.418;13.398;2022-08-07T02:42:32;9.63;;;4.20;;
26951;SDS011;14507;52.418;13.398;2022-08-07T02:44:59;11.23;;;3.67;;
26951;SDS011;14507;52.418;13.398;2022-08-07T02:47:29;8.30;;;3.65;;
26951;SDS011;14507;52.418;13.398;2022-08-07T02:49:55;9.95;;;3.67;;
26951;SDS011;14507;52.418;13.398;2022-08-07T02:52:25;7.93;;;3.88;;
26951;SDS011;14507;52.418;13.398;2022-08-07T02:54:56;7.22;;;3.88;;
26951;SDS011;14507;52.418;13.398;2022-08-07T02:57:26;7.80;;;4.20;;
26951;SDS011;14507;52.418;13.398;2022-08-07T02:59:53;7.43;;;3.72;;
26951;SDS011;14507;52.418;13.398;2022-08-07T03:02:20;9.98;;;4.18;;
26951;SDS011;14507;52.418;13.398;2022-08-07T03:04:46;7.60;;;3.70;;
26951;SDS011;14507;52.418;13.398;2022-08-07T03:07:13;7.07;;;3.92;;
26951;SDS011;14507;52.418;13.398;2022-08-07T03:09:40;6.53;;;3.58;;
26951;SDS011;14507;52.418;13.398;2022-08-07T03:12:06;6.68;;;4.05;;
26951;SDS011;14507;52.418;13.398;2022-08-07T03:14:33;7.50;;;3.88;;
26951;SDS011;14507;52.418;13.398;2022-08-07T03:17:01;6.22;;;3.40;;
26951;SDS011;14507;52.418;13.398;2022-08-07T03:19:27;8.13;;;3.70;;
26951;SDS011;14507;52.418;13.398;2022-08-07T03:21:54;8.38;;;3.50;;
26951;SDS011;14507;52.418;13.398;2022-08-07T03:24:20;8.10;;;3.67;;
26951;SDS011;14507;52.418;13.398;2022-08-07T03:26:46;7.13;;;3.50;;
26951;SDS011;14507;52.418;13.398;2022-08-07T03:29:16;6.93;;;3.28;;
26951;SDS011;14507;52.418;13.398;2022-08-07T03:31:44;6.70;;;3.10;;
26951;SDS011;14507;52.418;13.398;2022-08-07T03:34:11;5.70;;;2.70;;
26951;SDS011;14507;52.418;13.398;2022-08-07T03:36:40;6.40;;;3.08;;
26951;SDS011;14507;52.418;13.398;2022-08-07T03:39:07;8.07;;;3.15;;
26951;SDS011;14507;52.418;13.398;2022-08-07T03:41:35;6.90;;;2.80;;
26951;SDS011;14507;52.418;13.398;2022-08-07T03:44:02;7.57;;;3.70;;
26951;SDS011;14507;52.418;13.398;2022-08-07T03:46:27;11.20;;;3.28;;
26951;SDS011;14507;52.418;13.398;2022-08-07T03:48:54;7.70;;;3.38;;
26951;SDS011;14507;52.418;13.398;2022-08-07T03:51:20;8.07;;;3.03;;
26951;SDS011;14507;52.418;13.398;2022-08-07T03:53:46;8.93;;;3.10;;
26951;SDS011;14507;52.418;13.398;2022-08-07T03:56:13;7.50;;;3.05;;
26951;SDS011;14507;52.418;13.398;2022-08-07T03:58:46;5.78;;;2.92;;
26951;SDS011;14507;52.418;13.398;2022-08-07T04:01:14;8.15;;;3.55;;
26951;SDS011;14507;52.418;13.398;2022-08-07T04:03:41;7.03;;;3.20;;
26951;SDS011;14507;52.418;13.398;2022-08-07T04:06:07;6.88;;;3.15;;
26951;SDS011;14507;52.418;13.398;2022-08-07T04:08:34;6.00;;;2.90;;
26951;SDS011;14507;52.418;13.398;2022-08-07T04:11:00;4.82;;;2.72;;
26951;SDS011;14507;52.418;13.398;2022-08-07T04:13:26;8.48;;;2.78;;
26951;SDS011;14507;52.418;13.398;2022-08-07T04:15:53;8.00;;;3.10;;
26951;SDS011;14507;52.418;13.398;2022-08-07T04:18:18;7.38;;;2.95;;
26951;SDS011;14507;52.418;13.398;2022-08-07T04:20:44;6.20;;;3.00;;
26951;SDS011;14507;52.418;13.398;2022-08-07T04:23:10;5.32;;;3.05;;
26951;SDS011;14507;52.418;13.398;2022-08-07T04:25:37;5.60;;;2.78;;
26951;SDS011;14507;52.418;13.398;2022-08-07T04:28:07;5.25;;;2.80;;
26951;SDS011;14507;52.418;13.398;2022-08-07T04:30:34;6.25;;;2.50;;
26951;SDS011;14507;52.418;13.398;2022-08-07T04:33:04;5.40;;;2.78;;
26951;SDS011;14507;52.418;13.398;2022-08-07T04:35:35;5.63;;;2.47;;
26951;SDS011;14507;52.418;13.398;2022-08-07T04:38:08;6.60;;;2.58;;
26951;SDS011;14507;52.418;13.398;2022-08-07T04:40:39;5.28;;;2.40;;
26951;SDS011;14507;52.418;13.398;2022-08-07T04:43:05;5.00;;;2.50;;
26951;SDS011;14507;52.418;13.398;2022-08-07T04:45:54;4.45;;;2.50;;
26951;SDS011;14507;52.418;13.398;2022-08-07T04:48:33;5.35;;;2.85;;
26951;SDS011;14507;52.418;13.398;2022-08-07T04:51:26;6.43;;;2.72;;
26951;SDS011;14507;52.418;13.398;2022-08-07T04:54:15;5.97;;;2.50;;
26951;SDS011;14507;52.418;13.398;2022-08-07T04:59:38;5.05;;;2.58;;
26951;SDS011;14507;52.418;13.398;2022-08-07T05:02:23;6.05;;;2.42;;
26951;SDS011;14507;52.418;13.398;2022-08-07T05:07:39;5.63;;;2.55;;
26951;SDS011;14507;52.418;13.398;2022-08-07T05:10:12;3.70;;;1.98;;
26951;SDS011;14507;52.418;13.398;2022-08-07T05:12:49;5.95;;;2.13;;
26951;SDS011;14507;52.418;13.398;2022-08-07T05:15:24;5.63;;;2.30;;
26951;SDS011;14507;52.418;13.398;2022-08-07T05:17:59;6.53;;;2.22;;
26951;SDS011;14507;52.418;13.398;2022-08-07T05:20:31;5.22;;;1.90;;
26951;SDS011;14507;52.418;13.398;2022-08-07T05:25:36;3.58;;;1.92;;
26951;SDS011;14507;52.418;13.398;2022-08-07T05:28:04;6.47;;;2.10;;
26951;SDS011;14507;52.418;13.398;2022-08-07T05:30:32;4.03;;;2.17;;
26951;SDS011;14507;52.418;13.398;2022-08-07T05:33:00;4.75;;;2.40;;
26951;SDS011;14507;52.418;13.398;2022-08-07T05:35:26;5.75;;;2.05;;
26951;SDS011;14507;52.418;13.398;2022-08-07T05:37:52;5.95;;;2.10;;
26951;SDS011;14507;52.418;13.398;2022-08-07T05:40:19;4.93;;;1.95;;
26951;SDS011;14507;52.418;13.398;2022-08-07T05:42:45;6.18;;;2.00;;
26951;SDS011;14507;52.418;13.398;2022-08-07T05:45:11;4.95;;;1.80;;
26951;SDS011;14507;52.418;13.398;2022-08-07T05:47:37;5.93;;;2.08;;
26951;SDS011;14507;52.418;13.398;2022-08-07T05:50:03;5.57;;;1.75;;
26951;SDS011;14507;52.418;13.398;2022-08-07T05:52:30;8.40;;;2.08;;
26951;SDS011;14507;52.418;13.398;2022-08-07T05:54:56;5.50;;;1.98;;
26951;SDS011;14507;52.418;13.398;2022-08-07T05:57:22;6.50;;;1.75;;
26951;SDS011;14507;52.418;13.398;2022-08-07T05:59:49;3.00;;;1.73;;
26951;SDS011;14507;52.418;13.398;2022-08-07T06:02:16;9.40;;;2.15;;
26951;SDS011;14507;52.418;13.398;2022-08-07T06:04:44;5.13;;;1.70;;
26951;SDS011;14507;52.418;13.398;2022-08-07T06:07:16;3.00;;;1.20;;
26951;SDS011;14507;52.418;13.398;2022-08-07T06:09:42;7.30;;;1.50;;
26951;SDS011;14507;52.418;13.398;2022-08-07T06:12:09;5.93;;;1.65;;
26951;SDS011;14507;52.418;13.398;2022-08-07T06:14:35;6.60;;;1.42;;
26951;SDS011;14507;52.418;13.398;2022-08-07T06:17:01;4.50;;;1.40;;
26951;SDS011;14507;52.418;13.398;2022-08-07T06:19:28;4.32;;;1.48;;
26951;SDS011;14507;52.418;13.398;2022-08-07T06:21:54;5.03;;;1.33;;
26951;SDS011;14507;52.418;13.398;2022-08-07T06:24:20;2.40;;;1.23;;
26951;SDS011;14507;52.418;13.398;2022-08-07T06:26:46;4.13;;;1.35;;
26951;SDS011;14507;52.418;13.398;2022-08-07T06:29:12;5.47;;;1.70;;
26951;SDS011;14507;52.418;13.398;2022-08-07T06:31:37;6.05;;;1.42;;
26951;SDS011;14507;52.418;13.398;2022-08-07T06:34:03;4.78;;;1.52;;
26951;SDS011;14507;52.418;13.398;2022-08-07T06:36:29;4.10;;;1.25;;
26951;SDS011;14507;52.418;13.398;2022-08-07T06:38:54;7.10;;;1.42;;
26951;SDS011;14507;52.418;13.398;2022-08-07T06:41:39;3.67;;;1.30;;
26951;SDS011;14507;52.418;13.398;2022-08-07T06:44:10;4.32;;;1.50;;
26951;SDS011;14507;52.418;13.398;2022-08-07T06:46:36;3.25;;;1.75;;
26951;SDS011;14507;52.418;13.398;2022-08-07T06:49:03;2.58;;;1.30;;
26951;SDS011;14507;52.418;13.398;2022-08-07T06:51:29;5.03;;;1.48;;
26951;SDS011;14507;52.418;13.398;2022-08-07T06:53:57;3.50;;;1.45;;
26951;SDS011;14507;52.418;13.398;2022-08-07T06:56:30;3.25;;;1.25;;
26951;SDS011;14507;52.418;13.398;2022-08-07T06:59:08;2.45;;;1.30;;
26951;SDS011;14507;52.418;13.398;2022-08-07T07:01:40;4.70;;;1.35;;
26951;SDS011;14507;52.418;13.398;2022-08-07T07:04:07;2.85;;;1.27;;
26951;SDS011;14507;52.418;13.398;2022-08-07T07:06:33;5.07;;;1.52;;
26951;SDS011;14507;52.418;13.398;2022-08-07T07:09:15;4.45;;;1.15;;
26951;SDS011;14507;52.418;13.398;2022-08-07T07:14:31;3.38;;;1.40;;
26951;SDS011;14507;52.418;13.398;2022-08-07T07:17:04;3.55;;;1.17;;
26951;SDS011;14507;52.418;13.398;2022-08-07T07:19:37;4.30;;;1.52;;
26951;SDS011;14507;52.418;13.398;2022-08-07T07:22:07;3.30;;;1.42;;
26951;SDS011;14507;52.418;13.398;2022-08-07T07:24:35;4.22;;;1.40;;
26951;SDS011;14507;52.418;13.398;2022-08-07T07:27:02;3.97;;;1.33;;
26951;SDS011;14507;52.418;13.398;2022-08-07T07:29:32;3.22;;;1.10;;
26951;SDS011;14507;52.418;13.398;2022-08-07T07:32:02;3.92;;;1.33;;
26951;SDS011;14507;52.418;13.398;2022-08-07T07:34:32;5.78;;;1.73;;
26951;SDS011;14507;52.418;13.398;2022-08-07T07:37:02;4.57;;;1.50;;
26951;SDS011;14507;52.418;13.398;2022-08-07T07:39:29;5.60;;;1.52;;
26951;SDS011;14507;52.418;13.398;2022-08-07T07:41:57;2.80;;;1.17;;
26951;SDS011;14507;52.418;13.398;2022-08-07T07:44:25;4.95;;;1.13;;
26951;SDS011;14507;52.418;13.398;2022-08-07T07:46:52;4.88;;;1.17;;
26951;SDS011;14507;52.418;13.398;2022-08-07T07:49:20;3.85;;;1.42;;
26951;SDS011;14507;52.418;13.398;2022-08-07T07:51:48;3.20;;;1.27;;
26951;SDS011;14507;52.418;13.398;2022-08-07T07:54:15;2.15;;;1.00;;
26951;SDS011;14507;52.418;13.398;2022-08-07T07:56:42;3.03;;;1.15;;
26951;SDS011;14507;52.418;13.398;2022-08-07T07:59:09;3.33;;;1.00;;
26951;SDS011;14507;52.418;13.398;2022-08-07T08:01:39;2.83;;;1.00;;
26951;SDS011;14507;52.418;13.398;2022-08-07T08:04:08;3.05;;;1.00;;
26951;SDS011;14507;52.418;13.398;2022-08-07T08:06:36;1.98;;;1.00;;
26951;SDS011;14507;52.418;13.398;2022-08-07T08:11:38;6.65;;;1.00;;
26951;SDS011;14507;52.418;13.398;2022-08-07T08:14:04;3.72;;;1.20;;
26951;SDS011;14507;52.418;13.398;2022-08-07T08:16:34;5.80;;;1.00;;
26951;SDS011;14507;52.418;13.398;2022-08-07T08:19:04;1.55;;;0.80;;
26951;SDS011;14507;52.418;13.398;2022-08-07T08:21:32;1.70;;;0.80;;
26951;SDS011;14507;52.418;13.398;2022-08-07T08:24:17;3.30;;;0.73;;
26951;SDS011;14507;52.418;13.398;2022-08-07T08:27:03;2.95;;;0.90;;
26951;SDS011;14507;52.418;13.398;2022-08-07T08:29:55;1.95;;;1.05;;
26951;SDS011;14507;52.418;13.398;2022-08-07T08:32:30;1.92;;;0.75;;
26951;SDS011;14507;52.418;13.398;2022-08-07T08:34:58;4.82;;;0.90;;
26951;SDS011;14507;52.418;13.398;2022-08-07T08:37:26;4.95;;;0.73;;
26951;SDS011;14507;52.418;13.398;2022-08-07T08:39:53;3.90;;;0.90;;
26951;SDS011;14507;52.418;13.398;2022-08-07T08:42:36;2.63;;;0.75;;
26951;SDS011;14507;52.418;13.398;2022-08-07T08:45:17;2.05;;;0.80;;
26951;SDS011;14507;52.418;13.398;2022-08-07T08:48:05;3.05;;;1.02;;
26951;SDS011;14507;52.418;13.398;2022-08-07T08:50:41;2.35;;;0.98;;
26951;SDS011;14507;52.418;13.398;2022-08-07T08:53:18;3.10;;;1.00;;
26951;SDS011;14507;52.418;13.398;2022-08-07T08:56:02;2.80;;;0.80;;
26951;SDS011;14507;52.418;13.398;2022-08-07T08:58:49;4.95;;;0.90;;
26951;SDS011;14507;52.418;13.398;2022-08-07T09:01:23;2.45;;;0.85;;
26951;SDS011;14507;52.418;13.398;2022-08-07T09:04:04;2.53;;;0.80;;
26951;SDS011;14507;52.418;13.398;2022-08-07T09:06:47;2.45;;;0.93;;
26951;SDS011;14507;52.418;13.398;2022-08-07T09:09:38;2.65;;;1.05;;
26951;SDS011;14507;52.418;13.398;2022-08-07T09:18:05;1.98;;;0.90;;
26951;SDS011;14507;52.418;13.398;2022-08-07T09:26:38;4.50;;;0.90;;
26951;SDS011;14507;52.418;13.398;2022-08-07T09:32:31;3.17;;;0.90;;
26951;SDS011;14507;52.418;13.398;2022-08-07T09:37:42;2.25;;;0.90;;
26951;SDS011;14507;52.418;13.398;2022-08-07T09:40:36;2.88;;;1.20;;
26951;SDS011;14507;52.418;13.398;2022-08-07T09:43:11;1.55;;;0.90;;
26951;SDS011;14507;52.418;13.398;2022-08-07T09:48:30;3.58;;;0.90;;
26951;SDS011;14507;52.418;13.398;2022-08-07T09:54:32;2.75;;;1.00;;
26951;SDS011;14507;52.418;13.398;2022-08-07T10:00:23;1.83;;;0.70;;
26951;SDS011;14507;52.418;13.398;2022-08-07T10:05:34;2.45;;;0.80;;
26951;SDS011;14507;52.418;13.398;2022-08-07T10:19:48;2.00;;;0.95;;
26951;SDS011;14507;52.418;13.398;2022-08-07T10:23:02;2.70;;;0.60;;
26951;SDS011;14507;52.418;13.398;2022-08-07T10:25:36;2.58;;;0.80;;
26951;SDS011;14507;52.418;13.398;2022-08-07T10:28:28;2.25;;;0.70;;
26951;SDS011;14507;52.418;13.398;2022-08-07T10:33:47;1.65;;;0.60;;
26951;SDS011;14507;52.418;13.398;2022-08-07T10:36:47;1.60;;;0.73;;
26951;SDS011;14507;52.418;13.398;2022-08-07T10:42:30;2.78;;;0.93;;
26951;SDS011;14507;52.418;13.398;2022-08-07T10:47:30;1.92;;;0.90;;
26951;SDS011;14507;52.418;13.398;2022-08-07T10:53:05;2.47;;;0.82;;
26951;SDS011;14507;52.418;13.398;2022-08-07T11:03:54;2.33;;;0.88;;
26951;SDS011;14507;52.418;13.398;2022-08-07T11:06:29;2.63;;;1.00;;
26951;SDS011;14507;52.418;13.398;2022-08-07T11:09:13;1.75;;;0.80;;
26951;SDS011;14507;52.418;13.398;2022-08-07T11:11:55;1.77;;;0.75;;
26951;SDS011;14507;52.418;13.398;2022-08-07T11:14:32;2.20;;;0.88;;
26951;SDS011;14507;52.418;13.398;2022-08-07T11:19:39;4.00;;;0.82;;
26951;SDS011;14507;52.418;13.398;2022-08-07T11:22:14;3.20;;;0.80;;
26951;SDS011;14507;52.418;13.398;2022-08-07T11:27:32;1.80;;;0.70;;
26951;SDS011;14507;52.418;13.398;2022-08-07T11:30:10;4.55;;;1.17;;
26951;SDS011;14507;52.418;13.398;2022-08-07T11:32:46;2.72;;;0.85;;
26951;SDS011;14507;52.418;13.398;2022-08-07T11:35:21;2.92;;;1.00;;
26951;SDS011;14507;52.418;13.398;2022-08-07T11:43:42;1.88;;;0.80;;
26951;SDS011;14507;52.418;13.398;2022-08-07T11:54:27;3.80;;;1.65;;
26951;SDS011;14507;52.418;13.398;2022-08-07T12:07:59;3.00;;;1.27;;
26951;SDS011;14507;52.418;13.398;2022-08-07T12:15:53;4.45;;;1.15;;
26951;SDS011;14507;52.418;13.398;2022-08-07T12:18:28;2.33;;;0.90;;
26951;SDS011;14507;52.418;13.398;2022-08-07T12:23:53;1.55;;;0.70;;
26951;SDS011;14507;52.418;13.398;2022-08-07T12:31:37;2.35;;;0.90;;
26951;SDS011;14507;52.418;13.398;2022-08-07T12:34:08;2.35;;;0.82;;
26951;SDS011;14507;52.418;13.398;2022-08-07T12:36:35;2.28;;;0.82;;
26951;SDS011;14507;52.418;13.398;2022-08-07T12:39:03;2.22;;;0.90;;
26951;SDS011;14507;52.418;13.398;2022-08-07T12:41:29;2.58;;;0.80;;
26951;SDS011;14507;52.418;13.398;2022-08-07T12:44:03;3.63;;;1.00;;
26951;SDS011;14507;52.418;13.398;2022-08-07T12:49:30;2.72;;;0.88;;
26951;SDS011;14507;52.418;13.398;2022-08-07T12:52:13;5.85;;;0.90;;
26951;SDS011;14507;52.418;13.398;2022-08-07T12:54:46;2.35;;;0.85;;
26951;SDS011;14507;52.418;13.398;2022-08-07T12:57:20;2.05;;;0.52;;
26951;SDS011;14507;52.418;13.398;2022-08-07T12:59:54;3.25;;;0.70;;
26951;SDS011;14507;52.418;13.398;2022-08-07T13:02:35;1.52;;;0.73;;
26951;SDS011;14507;52.418;13.398;2022-08-07T13:08:21;3.38;;;0.80;;
26951;SDS011;14507;52.418;13.398;2022-08-07T13:16:39;2.65;;;1.00;;
26951;SDS011;14507;52.418;13.398;2022-08-07T13:22:03;2.30;;;0.77;;
26951;SDS011;14507;52.418;13.398;2022-08-07T13:24:43;2.20;;;0.90;;
26951;SDS011;14507;52.418;13.398;2022-08-07T13:27:25;1.40;;;0.68;;
26951;SDS011;14507;52.418;13.398;2022-08-07T13:30:03;1.65;;;0.75;;
26951;SDS011;14507;52.418;13.398;2022-08-07T13:35:14;1.10;;;0.50;;
26951;SDS011;14507;52.418;13.398;2022-08-07T13:43:11;1.65;;;0.82;;
26951;SDS011;14507;52.418;13.398;2022-08-07T13:45:39;1.13;;;0.70;;
26951;SDS011;14507;52.418;13.398;2022-08-07T13:48:08;0.98;;;0.52;;
26951;SDS011;14507;52.418;13.398;2022-08-07T13:50:37;2.80;;;0.70;;
26951;SDS011;14507;52.418;13.398;2022-08-07T13:53:05;2.60;;;0.93;;
26951;SDS011;14507;52.418;13.398;2022-08-07T13:55:31;2.70;;;0.88;;
26951;SDS011;14507;52.418;13.398;2022-08-07T13:58:04;4.50;;;0.87;;
26951;SDS011;14507;52.418;13.398;2022-08-07T14:00:51;2.20;;;0.70;;
26951;SDS011;14507;52.418;13.398;2022-08-07T14:03:22;3.55;;;0.82;;
26951;SDS011;14507;52.418;13.398;2022-08-07T14:05:51;2.97;;;0.90;;
26951;SDS011;14507;52.418;13.398;2022-08-07T14:08:20;2.25;;;0.88;;
26951;SDS011;14507;52.418;13.398;2022-08-07T14:10:48;2.55;;;0.88;;
26951;SDS011;14507;52.418;13.398;2022-08-07T14:13:15;1.75;;;0.70;;
26951;SDS011;14507;52.418;13.398;2022-08-07T14:15:50;5.00;;;1.00;;
26951;SDS011;14507;52.418;13.398;2022-08-07T14:18:30;1.98;;;0.88;;
26951;SDS011;14507;52.418;13.398;2022-08-07T14:21:38;1.38;;;0.75;;
26951;SDS011;14507;52.418;13.398;2022-08-07T14:24:06;2.08;;;0.82;;
26951;SDS011;14507;52.418;13.398;2022-08-07T14:26:51;2.67;;;0.70;;
26951;SDS011;14507;52.418;13.398;2022-08-07T14:29:25;4.10;;;0.85;;
26951;SDS011;14507;52.418;13.398;2022-08-07T14:31:56;1.63;;;0.80;;
26951;SDS011;14507;52.418;13.398;2022-08-07T14:34:26;2.47;;;1.00;;
26951;SDS011;14507;52.418;13.398;2022-08-07T14:36:54;2.92;;;1.05;;
26951;SDS011;14507;52.418;13.398;2022-08-07T14:39:21;1.67;;;0.90;;
26951;SDS011;14507;52.418;13.398;2022-08-07T14:41:49;2.03;;;1.13;;
26951;SDS011;14507;52.418;13.398;2022-08-07T14:46:43;2.20;;;0.98;;
26951;SDS011;14507;52.418;13.398;2022-08-07T14:49:11;2.17;;;0.88;;
26951;SDS011;14507;52.418;13.398;2022-08-07T14:51:41;2.92;;;0.88;;
26951;SDS011;14507;52.418;13.398;2022-08-07T14:54:07;3.92;;;1.17;;
26951;SDS011;14507;52.418;13.398;2022-08-07T14:56:39;4.07;;;0.90;;
26951;SDS011;14507;52.418;13.398;2022-08-07T14:59:06;2.50;;;1.05;;
26951;SDS011;14507;52.418;13.398;2022-08-07T15:01:35;4.70;;;1.20;;
26951;SDS011;14507;52.418;13.398;2022-08-07T15:04:07;4.30;;;1.33;;
26951;SDS011;14507;52.418;13.398;2022-08-07T15:06:34;2.28;;;0.90;;
26951;SDS011;14507;52.418;13.398;2022-08-07T15:09:11;1.83;;;0.80;;
26951;SDS011;14507;52.418;13.398;2022-08-07T15:11:42;1.77;;;0.90;;
26951;SDS011;14507;52.418;13.398;2022-08-07T15:14:21;2.95;;;1.08;;
26951;SDS011;14507;52.418;13.398;2022-08-07T15:16:53;4.30;;;1.33;;
26951;SDS011;14507;52.418;13.398;2022-08-07T15:19:23;2.60;;;1.00;;
26951;SDS011;14507;52.418;13.398;2022-08-07T15:21:55;2.45;;;0.85;;
26951;SDS011;14507;52.418;13.398;2022-08-07T15:24:28;2.97;;;1.13;;
26951;SDS011;14507;52.418;13.398;2022-08-07T15:29:35;3.10;;;0.93;;
26951;SDS011;14507;52.418;13.398;2022-08-07T15:32:03;1.83;;;0.88;;
26951;SDS011;14507;52.418;13.398;2022-08-07T15:34:40;4.45;;;1.50;;
26951;SDS011;14507;52.418;13.398;2022-08-07T15:37:09;2.35;;;1.00;;
26951;SDS011;14507;52.418;13.398;2022-08-07T15:39:36;3.25;;;1.00;;
26951;SDS011;14507;52.418;13.398;2022-08-07T15:42:04;4.10;;;1.35;;
26951;SDS011;14507;52.418;13.398;2022-08-07T15:44:41;4.80;;;1.20;;
26951;SDS011;14507;52.418;13.398;2022-08-07T15:47:12;2.55;;;1.00;;
26951;SDS011;14507;52.418;13.398;2022-08-07T15:49:39;1.45;;;0.80;;
26951;SDS011;14507;52.418;13.398;2022-08-07T15:52:08;3.38;;;0.95;;
26951;SDS011;14507;52.418;13.398;2022-08-07T15:57:03;1.83;;;0.98;;
26951;SDS011;14507;52.418;13.398;2022-08-07T15:59:32;2.92;;;1.15;;
26951;SDS011;14507;52.418;13.398;2022-08-07T16:02:02;2.58;;;0.98;;
26951;SDS011;14507;52.418;13.398;2022-08-07T16:04:31;2.05;;;0.93;;
26951;SDS011;14507;52.418;13.398;2022-08-07T16:06:59;1.92;;;1.00;;
26951;SDS011;14507;52.418;13.398;2022-08-07T16:17:31;2.90;;;1.40;;
26951;SDS011;14507;52.418;13.398;2022-08-07T16:23:07;2.78;;;0.98;;
26951;SDS011;14507;52.418;13.398;2022-08-07T16:26:09;2.35;;;0.88;;
26951;SDS011;14507;52.418;13.398;2022-08-07T16:28:51;2.20;;;1.20;;
26951;SDS011;14507;52.418;13.398;2022-08-07T16:40:12;4.63;;;1.40;;
26951;SDS011;14507;52.418;13.398;2022-08-07T16:46:02;4.43;;;1.30;;
26951;SDS011;14507;52.418;13.398;2022-08-07T16:54:43;3.05;;;1.10;;
26951;SDS011;14507;52.418;13.398;2022-08-07T17:00:13;4.63;;;1.10;;
26951;SDS011;14507;52.418;13.398;2022-08-07T17:11:31;3.13;;;1.20;;
26951;SDS011;14507;52.418;13.398;2022-08-07T17:14:06;2.75;;;1.00;;
26951;SDS011;14507;52.418;13.398;2022-08-07T17:16:41;4.20;;;1.27;;
26951;SDS011;14507;52.418;13.398;2022-08-07T17:19:22;7.10;;;1.20;;
26951;SDS011;14507;52.418;13.398;2022-08-07T17:22:02;5.60;;;1.45;;
26951;SDS011;14507;52.418;13.398;2022-08-07T17:27:13;4.07;;;1.05;;
26951;SDS011;14507;52.418;13.398;2022-08-07T17:30:08;2.50;;;1.10;;
26951;SDS011;14507;52.418;13.398;2022-08-07T17:35:27;4.40;;;1.55;;
26951;SDS011;14507;52.418;13.398;2022-08-07T17:38:14;2.53;;;1.00;;
26951;SDS011;14507;52.418;13.398;2022-08-07T17:43:47;3.13;;;1.42;;
26951;SDS011;14507;52.418;13.398;2022-08-07T17:46:25;4.03;;;1.35;;
26951;SDS011;14507;52.418;13.398;2022-08-07T17:52:04;3.15;;;1.40;;
26951;SDS011;14507;52.418;13.398;2022-08-07T17:54:49;3.20;;;1.20;;
26951;SDS011;14507;52.418;13.398;2022-08-07T17:57:30;5.40;;;1.58;;
26951;SDS011;14507;52.418;13.398;2022-08-07T18:00:06;3.22;;;1.45;;
26951;SDS011;14507;52.418;13.398;2022-08-07T18:02:56;2.95;;;1.30;;
26951;SDS011;14507;52.418;13.398;2022-08-07T18:08:22;3.67;;;1.40;;
26951;SDS011;14507;52.418;13.398;2022-08-07T18:11:41;2.83;;;1.55;;
26951;SDS011;14507;52.418;13.398;2022-08-07T18:24:54;4.60;;;2.00;;
26951;SDS011;14507;52.418;13.398;2022-08-07T18:27:44;5.63;;;2.40;;
26951;SDS011;14507;52.418;13.398;2022-08-07T18:47:54;5.47;;;1.50;;
26951;SDS011;14507;52.418;13.398;2022-08-07T18:57:05;2.80;;;1.55;;
26951;SDS011;14507;52.418;13.398;2022-08-07T19:02:41;5.95;;;1.88;;